createdAt,value
2022-12-11T00:00:42.589Z,0.57
2022-12-11T00:03:15.641Z,0.58
2022-12-11T00:05:44.140Z,0.56
2022-12-11T00:08:12.568Z,0.58
2022-12-11T00:10:40.190Z,0.66
2022-12-11T00:13:07.825Z,0.70
2022-12-11T00:15:35.373Z,0.67
2022-12-11T00:18:02.926Z,0.67
2022-12-11T00:20:30.455Z,0.69
2022-12-11T00:22:57.992Z,0.71
2022-12-11T00:25:25.553Z,0.74
2022-12-11T00:27:53.068Z,0.70
2022-12-11T00:30:20.601Z,0.61
2022-12-11T00:32:48.132Z,0.76
2022-12-11T00:35:15.705Z,0.77
2022-12-11T00:37:43.237Z,0.80
2022-12-11T00:40:11.637Z,0.80
2022-12-11T00:42:39.197Z,0.73
2022-12-11T00:45:12.955Z,0.74
2022-12-11T00:47:42.184Z,0.73
2022-12-11T00:50:14.288Z,0.79
2022-12-11T00:52:43.816Z,0.71
2022-12-11T00:55:15.078Z,0.69
2022-12-11T00:57:42.609Z,0.71
2022-12-11T01:00:11.037Z,0.74
2022-12-11T01:02:38.551Z,0.75
2022-12-11T01:05:06.585Z,0.68
2022-12-11T01:07:34.077Z,0.67
2022-12-11T01:10:18.978Z,0.72
2022-12-11T01:12:46.549Z,0.77
2022-12-11T01:15:14.147Z,0.73
2022-12-11T01:17:41.639Z,0.71
2022-12-11T01:20:09.807Z,0.73
2022-12-11T01:22:37.353Z,0.72
2022-12-11T01:25:05.524Z,0.71
2022-12-11T01:27:33.127Z,0.71
2022-12-11T01:30:00.740Z,0.74
2022-12-11T01:32:29.164Z,0.77
2022-12-11T01:34:56.727Z,0.79
2022-12-11T01:37:24.337Z,0.74
2022-12-11T01:39:51.981Z,0.69
2022-12-11T01:42:21.394Z,0.79
2022-12-11T01:44:48.821Z,0.82
2022-12-11T01:47:16.693Z,0.82
2022-12-11T01:49:44.512Z,0.84
2022-12-11T01:52:17.179Z,0.84
2022-12-11T01:54:44.823Z,0.81
2022-12-11T01:57:14.039Z,0.76
2022-12-11T01:59:45.799Z,0.73
2022-12-11T02:02:20.049Z,0.77
2022-12-11T02:04:48.558Z,0.85
2022-12-11T02:07:16.917Z,0.82
2022-12-11T02:09:47.241Z,0.84
2022-12-11T02:12:29.099Z,0.85
2022-12-11T02:15:15.141Z,0.79
2022-12-11T02:17:56.169Z,0.79
2022-12-11T02:20:39.425Z,0.90
2022-12-11T02:23:18.880Z,0.92
2022-12-11T02:26:04.565Z,0.87
2022-12-11T02:28:39.471Z,0.97
2022-12-11T02:31:13.952Z,0.96
2022-12-11T02:34:02.835Z,0.93
2022-12-11T02:36:35.957Z,0.89
2022-12-11T02:39:06.527Z,0.97
2022-12-11T02:41:34.738Z,0.95
2022-12-11T02:44:05.463Z,0.99
2022-12-11T02:46:36.510Z,0.93
2022-12-11T02:49:06.860Z,0.93
2022-12-11T02:51:39.425Z,0.95
2022-12-11T02:54:08.684Z,0.86
2022-12-11T02:56:47.622Z,0.86
2022-12-11T02:59:20.064Z,0.90
2022-12-11T03:01:48.030Z,0.86
2022-12-11T03:04:15.764Z,0.85
2022-12-11T03:06:49.389Z,0.84
2022-12-11T03:09:16.963Z,0.83
2022-12-11T03:11:44.517Z,0.86
2022-12-11T03:14:12.160Z,0.86
2022-12-11T03:16:43.898Z,0.92
2022-12-11T03:19:11.728Z,0.85
2022-12-11T03:21:54.475Z,0.80
2022-12-11T03:24:30.981Z,0.93
2022-12-11T03:27:11.620Z,0.81
2022-12-11T03:29:44.612Z,0.82
2022-12-11T03:32:16.787Z,0.88
2022-12-11T03:34:48.004Z,0.87
2022-12-11T03:37:16.639Z,0.92
2022-12-11T03:39:49.236Z,0.88
2022-12-11T03:42:19.016Z,0.85
2022-12-11T03:44:50.655Z,0.96
2022-12-11T03:47:21.723Z,0.90
2022-12-11T03:49:51.464Z,0.94
2022-12-11T03:52:19.905Z,0.92
2022-12-11T03:54:50.768Z,0.90
2022-12-11T03:57:23.489Z,0.90
2022-12-11T03:59:51.739Z,0.95
2022-12-11T04:02:19.316Z,0.96
2022-12-11T04:04:46.834Z,0.92
2022-12-11T04:07:14.408Z,0.94
2022-12-11T04:09:41.903Z,0.90
2022-12-11T04:12:09.585Z,0.88
2022-12-11T04:14:54.936Z,0.89
2022-12-11T04:17:36.362Z,0.93
2022-12-11T04:20:24.976Z,0.92
2022-12-11T04:23:09.794Z,0.90
2022-12-11T04:25:41.787Z,0.92
2022-12-11T04:28:09.343Z,0.87
2022-12-11T04:30:36.849Z,0.87
2022-12-11T04:33:05.022Z,0.87
2022-12-11T04:35:32.624Z,0.83
2022-12-11T04:38:01.180Z,0.81
2022-12-11T04:40:28.882Z,0.86
2022-12-11T04:42:56.456Z,0.86
2022-12-11T04:45:23.953Z,0.81
2022-12-11T04:47:51.567Z,0.76
2022-12-11T04:50:19.263Z,0.74
2022-12-11T04:52:46.884Z,0.80
2022-12-11T04:55:14.955Z,0.81
2022-12-11T04:57:42.501Z,0.78
2022-12-11T05:00:12.018Z,0.75
2022-12-11T05:02:40.993Z,0.75
2022-12-11T05:05:11.372Z,0.70
2022-12-11T05:07:39.290Z,0.74
2022-12-11T05:10:07.810Z,0.78
2022-12-11T05:12:35.378Z,0.83
2022-12-11T05:15:02.891Z,0.77
2022-12-11T05:17:30.426Z,0.77
2022-12-11T05:19:57.935Z,0.79
2022-12-11T05:22:25.482Z,0.78
2022-12-11T05:24:52.994Z,0.85
2022-12-11T05:27:20.926Z,0.85
2022-12-11T05:29:48.506Z,0.76
2022-12-11T05:32:16.036Z,0.76
2022-12-11T05:34:43.728Z,0.82
2022-12-11T05:37:11.301Z,0.75
2022-12-11T05:39:39.394Z,0.80
2022-12-11T05:42:06.912Z,0.76
2022-12-11T05:44:34.651Z,0.84
2022-12-11T05:47:02.274Z,0.78
2022-12-11T05:49:31.137Z,0.71
2022-12-11T05:51:58.868Z,0.77
2022-12-11T05:54:26.399Z,0.84
2022-12-11T05:56:53.981Z,0.82
2022-12-11T05:59:21.531Z,0.78
2022-12-11T06:01:49.228Z,0.80
2022-12-11T06:04:16.898Z,0.75
2022-12-11T06:06:44.753Z,0.68
2022-12-11T06:09:15.610Z,0.79
2022-12-11T06:11:43.766Z,0.80
2022-12-11T06:14:13.878Z,0.74
2022-12-11T06:16:41.431Z,0.76
2022-12-11T06:19:15.342Z,0.77
2022-12-11T06:21:42.929Z,0.79
2022-12-11T06:24:12.277Z,0.77
2022-12-11T06:26:39.849Z,0.75
2022-12-11T06:29:11.042Z,0.73
2022-12-11T06:31:40.529Z,0.79
2022-12-11T06:34:08.150Z,0.75
2022-12-11T06:36:35.747Z,0.77
2022-12-11T06:39:03.272Z,0.70
2022-12-11T06:41:30.820Z,0.72
2022-12-11T06:43:58.394Z,0.66
2022-12-11T06:46:25.938Z,0.74
2022-12-11T06:48:53.536Z,0.68
2022-12-11T06:51:23.190Z,0.69
2022-12-11T06:53:54.938Z,0.71
2022-12-11T06:56:23.369Z,0.71
2022-12-11T06:58:51.934Z,0.69
2022-12-11T07:01:25.894Z,0.67
2022-12-11T07:03:58.637Z,0.63
2022-12-11T07:06:27.731Z,0.66
2022-12-11T07:08:55.726Z,0.58
2022-12-11T07:11:23.545Z,0.61
2022-12-11T07:13:51.536Z,0.66
2022-12-11T07:16:19.670Z,0.72
2022-12-11T07:18:51.844Z,0.73
2022-12-11T07:21:21.155Z,0.57
2022-12-11T07:23:49.767Z,0.61
2022-12-11T07:26:19.843Z,0.56
2022-12-11T07:28:47.423Z,0.67
2022-12-11T07:31:18.102Z,0.66
2022-12-11T07:33:46.054Z,0.61
2022-12-11T07:36:16.239Z,0.56
2022-12-11T07:38:43.853Z,0.53
2022-12-11T07:41:14.126Z,0.51
2022-12-11T07:43:42.585Z,0.55
2022-12-11T07:46:16.798Z,0.50
2022-12-11T07:48:46.831Z,0.54
2022-12-11T07:51:17.338Z,0.47
2022-12-11T07:53:46.780Z,0.46
2022-12-11T07:56:15.644Z,0.44
2022-12-11T07:58:43.629Z,0.42
2022-12-11T08:01:16.109Z,0.42
2022-12-11T08:03:43.637Z,0.45
2022-12-11T08:06:11.990Z,0.37
2022-12-11T08:08:41.341Z,0.39
2022-12-11T08:11:12.115Z,0.41
2022-12-11T08:13:40.307Z,0.42
2022-12-11T08:16:09.942Z,0.38
2022-12-11T08:18:38.308Z,0.38
2022-12-11T08:21:14.419Z,0.37
2022-12-11T08:23:42.242Z,0.46
2022-12-11T08:26:14.031Z,0.51
2022-12-11T08:28:41.564Z,0.49
2022-12-11T08:31:11.775Z,0.51
2022-12-11T08:33:40.418Z,0.53
2022-12-11T08:36:09.909Z,0.53
2022-12-11T08:38:38.483Z,0.58
2022-12-11T08:41:14.044Z,0.61
2022-12-11T08:43:42.310Z,0.64
2022-12-11T08:46:10.192Z,0.64
2022-12-11T08:48:42.266Z,0.69
2022-12-11T08:51:14.300Z,0.72
2022-12-11T08:53:41.896Z,0.70
2022-12-11T08:56:12.467Z,0.73
2022-12-11T08:58:40.023Z,0.72
2022-12-11T09:01:14.464Z,0.75
2022-12-11T09:03:42.795Z,0.75
2022-12-11T09:06:13.934Z,0.81
2022-12-11T09:08:44.832Z,0.90
2022-12-11T09:11:20.929Z,0.89
2022-12-11T09:13:48.556Z,0.97
2022-12-11T09:16:18.736Z,0.98
2022-12-11T09:18:48.557Z,1.06
2022-12-11T09:21:18.872Z,1.05
2022-12-11T09:23:47.111Z,1.03
2022-12-11T09:26:17.131Z,1.00
2022-12-11T09:28:46.966Z,1.00
2022-12-11T09:31:16.898Z,1.09
2022-12-11T09:33:45.109Z,1.14
2022-12-11T09:36:13.064Z,1.12
2022-12-11T09:38:43.263Z,1.07
2022-12-11T09:41:40.496Z,1.16
2022-12-11T09:44:19.127Z,1.04
2022-12-11T09:46:48.180Z,1.07
2022-12-11T09:49:42.550Z,1.16
2022-12-11T09:52:32.077Z,1.13
2022-12-11T09:55:03.439Z,1.11
2022-12-11T09:57:33.867Z,1.20
2022-12-11T10:00:13.347Z,1.22
2022-12-11T10:02:52.338Z,1.26
2022-12-11T10:05:51.202Z,1.19
2022-12-11T10:08:34.338Z,1.25
2022-12-11T10:11:20.263Z,1.24
2022-12-11T10:14:03.789Z,1.22
2022-12-11T10:16:48.229Z,1.23
2022-12-11T10:19:22.057Z,1.20
2022-12-11T10:21:51.710Z,1.22
2022-12-11T10:27:33.569Z,1.32
2022-12-11T10:30:21.089Z,1.26
2022-12-11T10:33:01.207Z,1.42
2022-12-11T10:35:40.985Z,1.46
2022-12-11T10:38:35.130Z,1.53
2022-12-11T10:41:06.299Z,1.49
2022-12-11T10:43:47.479Z,1.51
2022-12-11T10:46:25.516Z,1.55
2022-12-11T10:48:55.682Z,1.53
2022-12-11T10:51:37.841Z,1.56
2022-12-11T10:54:19.144Z,1.71
2022-12-11T10:56:51.524Z,1.78
2022-12-11T10:59:39.259Z,1.74
2022-12-11T11:02:18.217Z,1.66
2022-12-11T11:04:46.596Z,1.56
2022-12-11T11:07:29.123Z,1.61
2022-12-11T11:10:07.878Z,1.62
2022-12-11T11:12:40.580Z,1.71
2022-12-11T11:15:23.707Z,1.59
2022-12-11T11:18:02.019Z,1.64
2022-12-11T11:20:32.027Z,1.73
2022-12-11T11:23:06.022Z,1.64
2022-12-11T11:25:34.828Z,1.62
2022-12-11T11:28:05.892Z,1.70
2022-12-11T11:30:37.915Z,1.50
2022-12-11T11:33:19.544Z,1.55
2022-12-11T11:36:01.700Z,1.61
2022-12-11T11:38:34.794Z,1.74
2022-12-11T11:41:13.151Z,1.69
2022-12-11T11:43:54.419Z,1.63
2022-12-11T11:46:31.024Z,1.65
2022-12-11T11:48:58.587Z,1.75
2022-12-11T11:51:34.878Z,1.80
2022-12-11T11:54:09.819Z,1.74
2022-12-11T11:56:39.016Z,1.61
2022-12-11T11:59:21.758Z,1.72
2022-12-11T12:01:49.395Z,1.74
2022-12-11T12:04:17.952Z,1.64
2022-12-11T12:07:19.561Z,1.75
2022-12-11T12:10:04.439Z,1.68
2022-12-11T12:12:48.319Z,1.77
2022-12-11T12:15:44.792Z,1.75
2022-12-11T12:18:38.420Z,1.72
2022-12-11T12:21:24.879Z,1.74
2022-12-11T12:24:15.579Z,1.96
2022-12-11T12:26:54.060Z,1.78
2022-12-11T12:29:29.942Z,1.85
2022-12-11T12:32:14.109Z,1.84
2022-12-11T12:35:02.788Z,1.91
2022-12-11T12:38:06.844Z,1.65
2022-12-11T12:41:04.466Z,1.65
2022-12-11T12:43:46.039Z,1.70
2022-12-11T12:46:19.313Z,1.74
2022-12-11T12:48:46.917Z,1.68
2022-12-11T12:51:17.584Z,1.80
2022-12-11T12:53:53.856Z,1.82
2022-12-11T12:56:23.041Z,1.77
2022-12-11T12:58:50.721Z,1.81
2022-12-11T13:01:21.766Z,1.81
2022-12-11T13:03:58.572Z,1.84
2022-12-11T13:06:39.556Z,1.79
2022-12-11T13:09:18.173Z,1.62
2022-12-11T13:11:47.591Z,1.59
2022-12-11T13:14:15.340Z,1.71
2022-12-11T13:16:46.663Z,1.74
2022-12-11T13:19:23.965Z,1.57
2022-12-11T13:22:18.672Z,1.56
2022-12-11T13:25:01.967Z,1.53
2022-12-11T13:27:35.691Z,1.52
2022-12-11T13:30:27.317Z,1.53
2022-12-11T13:33:15.664Z,1.61
2022-12-11T13:35:43.811Z,1.70
2022-12-11T13:38:20.775Z,1.67
2022-12-11T13:40:54.647Z,1.67
2022-12-11T13:43:28.404Z,1.70
2022-12-11T13:45:59.670Z,1.66
2022-12-11T13:48:36.136Z,1.75
2022-12-11T13:51:04.676Z,1.76
2022-12-11T13:53:32.915Z,1.61
2022-12-11T13:56:08.871Z,1.53
2022-12-11T13:58:40.538Z,1.59
2022-12-11T14:01:13.949Z,1.63
2022-12-11T14:03:44.706Z,1.65
2022-12-11T14:06:18.661Z,1.50
2022-12-11T14:08:51.488Z,1.50
2022-12-11T14:11:28.648Z,1.50
2022-12-11T14:14:02.835Z,1.53
2022-12-11T14:16:31.219Z,1.57
2022-12-11T14:19:08.297Z,1.50
2022-12-11T14:21:35.909Z,1.50
2022-12-11T14:24:07.110Z,1.60
2022-12-11T14:26:38.607Z,1.60
2022-12-11T14:29:07.861Z,1.49
2022-12-11T14:31:40.531Z,1.52
2022-12-11T14:34:15.256Z,1.45
2022-12-11T14:36:44.694Z,1.49
2022-12-11T14:39:22.776Z,1.48
2022-12-11T14:41:58.420Z,1.50
2022-12-11T14:44:29.257Z,1.47
2022-12-11T14:47:13.160Z,1.42
2022-12-11T14:49:59.557Z,1.36
2022-12-11T14:52:43.361Z,1.31
2022-12-11T14:55:18.855Z,1.22
2022-12-11T14:57:51.070Z,1.23
2022-12-11T15:00:30.685Z,1.23
2022-12-11T15:03:03.437Z,1.20
2022-12-11T15:05:37.094Z,1.26
2022-12-11T15:08:25.423Z,1.33
2022-12-11T15:11:09.642Z,1.34
2022-12-11T15:13:48.913Z,1.29
2022-12-11T15:16:17.141Z,1.27
2022-12-11T15:18:49.108Z,1.27
2022-12-11T15:21:17.521Z,1.25
2022-12-11T15:23:54.227Z,1.31
2022-12-11T15:26:33.446Z,1.25
2022-12-11T15:29:02.550Z,1.30
2022-12-11T15:31:33.350Z,1.26
2022-12-11T15:34:03.458Z,1.23
2022-12-11T15:36:38.045Z,1.20
2022-12-11T15:39:08.661Z,1.16
2022-12-11T15:41:36.312Z,1.22
2022-12-11T15:44:05.507Z,1.18
2022-12-11T15:46:37.274Z,1.12
2022-12-11T15:49:13.528Z,1.13
2022-12-11T15:51:43.154Z,1.08
2022-12-11T15:54:10.994Z,1.07
2022-12-11T15:56:40.137Z,1.07
2022-12-11T15:59:07.949Z,1.13
2022-12-11T16:01:35.779Z,1.20
2022-12-11T16:04:05.398Z,1.24
2022-12-11T16:06:33.307Z,1.28
2022-12-11T16:09:01.254Z,1.26
2022-12-11T16:11:29.036Z,1.27
2022-12-11T16:13:56.547Z,1.30
2022-12-11T16:16:24.091Z,1.34
2022-12-11T16:18:51.666Z,1.11
2022-12-11T16:21:21.532Z,1.22
2022-12-11T16:23:49.541Z,1.15
2022-12-11T16:26:17.096Z,1.19
2022-12-11T16:28:44.717Z,1.23
2022-12-11T16:31:13.881Z,1.23
2022-12-11T16:33:41.709Z,1.22
2022-12-11T16:36:17.173Z,1.23
2022-12-11T16:38:54.003Z,1.22
2022-12-11T16:41:22.816Z,1.24
2022-12-11T16:43:50.556Z,1.24
2022-12-11T16:46:19.938Z,1.28
2022-12-11T16:48:47.571Z,1.30
2022-12-11T16:51:15.286Z,1.29
2022-12-11T16:53:42.880Z,1.18
2022-12-11T16:56:10.863Z,1.05
2022-12-11T16:58:38.399Z,1.23
2022-12-11T17:01:13.871Z,1.14
2022-12-11T17:03:42.524Z,1.11
2022-12-11T17:06:12.316Z,1.03
2022-12-11T17:08:41.238Z,0.94
2022-12-11T17:11:14.364Z,1.03
2022-12-11T17:13:42.292Z,0.96
2022-12-11T17:16:13.270Z,1.04
2022-12-11T17:18:41.397Z,1.00
2022-12-11T17:21:11.659Z,0.95
2022-12-11T17:23:39.850Z,0.95
2022-12-11T17:26:08.711Z,0.93
2022-12-11T17:28:37.584Z,0.90
2022-12-11T17:31:07.712Z,0.87
2022-12-11T17:33:35.770Z,0.84
2022-12-11T17:36:05.606Z,0.83
2022-12-11T17:38:33.294Z,0.94
2022-12-11T17:41:00.915Z,0.96
2022-12-11T17:43:28.491Z,0.94
2022-12-11T17:45:56.302Z,0.85
2022-12-11T17:48:23.887Z,0.83
2022-12-11T17:50:53.074Z,0.89
2022-12-11T17:53:21.810Z,0.90
2022-12-11T17:55:51.757Z,0.70
2022-12-11T17:58:22.094Z,0.87
2022-12-11T18:00:54.157Z,0.83
2022-12-11T18:03:23.064Z,0.81
2022-12-11T18:05:53.549Z,0.58
2022-12-11T18:08:25.077Z,0.70
2022-12-11T18:10:53.756Z,0.68
2022-12-11T18:13:22.211Z,0.72
2022-12-11T18:16:01.445Z,0.73
2022-12-11T18:18:29.123Z,0.82
2022-12-11T18:20:56.837Z,0.72
2022-12-11T18:23:24.671Z,0.79
2022-12-11T18:25:52.324Z,0.82
2022-12-11T18:28:20.436Z,0.75
2022-12-11T18:30:48.480Z,0.67
2022-12-11T18:33:16.201Z,0.64
2022-12-11T18:35:43.792Z,0.50
2022-12-11T18:38:11.887Z,0.67
2022-12-11T18:40:39.524Z,0.70
2022-12-11T18:43:07.107Z,0.67
2022-12-11T18:45:35.693Z,0.70
2022-12-11T18:48:03.293Z,0.67
2022-12-11T18:50:30.890Z,0.70
2022-12-11T18:52:58.494Z,0.74
2022-12-11T18:55:26.167Z,0.66
2022-12-11T18:57:53.812Z,0.62
2022-12-11T19:00:22.077Z,0.68
2022-12-11T19:02:52.177Z,0.70
2022-12-11T19:05:19.867Z,0.66
2022-12-11T19:07:47.533Z,0.62
2022-12-11T19:10:15.646Z,0.50
2022-12-11T19:12:44.227Z,0.68
2022-12-11T19:15:12.506Z,0.68
2022-12-11T19:17:40.580Z,0.66
2022-12-11T19:20:32.337Z,0.63
2022-12-11T19:22:56.928Z,0.62
2022-12-11T19:25:24.520Z,0.63
2022-12-11T19:27:52.400Z,0.60
2022-12-11T19:30:20.295Z,0.54
2022-12-11T19:32:48.364Z,0.47
2022-12-11T19:35:17.621Z,0.53
2022-12-11T19:37:45.159Z,0.56
2022-12-11T19:40:14.382Z,0.43
2022-12-11T19:42:42.389Z,0.55
2022-12-11T19:45:10.776Z,0.62
2022-12-11T19:47:38.836Z,0.66
2022-12-11T19:50:06.880Z,0.64
2022-12-11T19:52:34.429Z,0.59
2022-12-11T19:55:06.229Z,0.63
2022-12-11T19:57:35.181Z,0.64
2022-12-11T20:00:03.240Z,0.60
2022-12-11T20:02:30.855Z,0.62
2022-12-11T20:04:58.535Z,0.60
2022-12-11T20:07:30.693Z,0.57
2022-12-11T20:10:00.204Z,0.58
2022-12-11T20:12:28.518Z,0.56
2022-12-11T20:14:56.092Z,0.56
2022-12-11T20:17:24.079Z,0.57
2022-12-11T20:19:51.635Z,0.56
2022-12-11T20:22:19.381Z,0.62
2022-12-11T20:24:47.007Z,0.63
2022-12-11T20:27:14.599Z,0.55
2022-12-11T20:29:42.225Z,0.60
2022-12-11T20:32:11.247Z,0.54
2022-12-11T20:34:39.038Z,0.53
2022-12-11T20:37:07.735Z,0.56
2022-12-11T20:39:35.624Z,0.44
2022-12-11T20:42:04.936Z,0.47
2022-12-11T20:44:32.979Z,0.53
2022-12-11T20:47:00.632Z,0.49
2022-12-11T20:49:28.866Z,0.53
2022-12-11T20:51:57.450Z,0.51
2022-12-11T20:54:25.722Z,0.47
2022-12-11T20:56:53.655Z,0.39
2022-12-11T20:59:21.937Z,0.46
2022-12-11T21:01:50.940Z,0.47
2022-12-11T21:04:18.550Z,0.38
2022-12-11T21:06:46.096Z,0.47
2022-12-11T21:09:17.679Z,0.50
2022-12-11T21:11:47.041Z,0.50
2022-12-11T21:14:15.910Z,0.51
2022-12-11T21:16:43.754Z,0.49
2022-12-11T21:19:17.263Z,0.52
2022-12-11T21:21:46.334Z,0.48
2022-12-11T21:24:26.492Z,0.45
2022-12-11T21:26:56.474Z,0.44
2022-12-11T21:29:27.776Z,0.38
2022-12-11T21:31:55.565Z,0.38
2022-12-11T21:34:25.605Z,0.43
2022-12-11T21:36:56.490Z,0.41
2022-12-11T21:39:29.014Z,0.44
2022-12-11T21:41:58.102Z,0.36
2022-12-11T21:45:31.371Z,0.31
2022-12-11T21:47:13.630Z,0.33
2022-12-11T21:49:41.234Z,0.24
2022-12-11T21:52:09.493Z,0.35
2022-12-11T21:54:37.039Z,0.37
2022-12-11T21:57:04.988Z,0.32
2022-12-11T21:59:32.949Z,0.27
2022-12-11T22:02:00.687Z,0.30
2022-12-11T22:04:28.366Z,0.31
2022-12-11T22:06:56.073Z,0.27
2022-12-11T22:09:23.665Z,0.28
2022-12-11T22:11:55.147Z,0.28
2022-12-11T22:14:25.892Z,0.25
2022-12-11T22:16:53.491Z,0.30
2022-12-11T22:19:21.181Z,0.33
2022-12-11T22:21:48.764Z,0.31
2022-12-11T22:24:16.381Z,0.23
2022-12-11T22:26:44.011Z,0.19
2022-12-11T22:29:11.647Z,0.29
2022-12-11T22:31:39.254Z,0.23
2022-12-11T22:34:06.869Z,0.21
2022-12-11T22:36:36.656Z,0.25
2022-12-11T22:39:04.734Z,0.15
2022-12-11T22:41:34.036Z,0.27
2022-12-11T22:44:02.250Z,0.17
2022-12-11T22:46:31.305Z,0.26
2022-12-11T22:48:59.898Z,0.23
2022-12-11T22:51:27.623Z,0.24
2022-12-11T22:53:55.289Z,0.22
2022-12-11T22:56:22.858Z,0.22
2022-12-11T22:58:50.525Z,0.14
2022-12-11T23:01:23.429Z,0.18
2022-12-11T23:03:51.241Z,0.17
2022-12-11T23:06:21.343Z,0.10
2022-12-11T23:08:49.074Z,0.09
2022-12-11T23:11:20.937Z,0.15
2022-12-11T23:13:48.799Z,0.15
2022-12-11T23:16:16.593Z,0.12
2022-12-11T23:18:45.561Z,0.16
2022-12-11T23:21:13.631Z,0.12
2022-12-11T23:23:42.387Z,0.11
2022-12-11T23:26:12.886Z,0.14
2022-12-11T23:28:41.178Z,0.16
2022-12-11T23:31:10.081Z,0.15
2022-12-11T23:33:38.185Z,0.14
2022-12-11T23:36:06.149Z,0.16
2022-12-11T23:38:34.244Z,0.19
2022-12-11T23:41:03.804Z,-0.02
2022-12-11T23:43:34.435Z,0.21
2022-12-11T23:46:02.424Z,0.19
2022-12-11T23:48:31.437Z,0.19
2022-12-11T23:51:01.141Z,0.21
2022-12-11T23:53:29.820Z,0.21
2022-12-11T23:55:58.021Z,0.20
2022-12-11T23:58:25.701Z,0.20
